Time;durP1;ratioP1;P1;durP2;ratioP2;P2;SDS_P1;SDS_P2;PMS_P1;PMS_P2;Temp;Humidity;BMP_temperature;BMP_pressure;BME280_temperature;BME280_humidity;BME280_pressure;Samples;Min_cycle;Max_cycle;Signal;HPM_P1;HPM_P2
2023/01/04 00:01:19;;;;;;;110.32;43.95;;;;;;;10.22;100.00;101941.66;4961668;28;20039;-82
2023/01/04 00:03:47;;;;;;;112.20;42.58;;;;;;;10.20;100.00;101940.09;4961370;28;20126;-82
2023/01/04 00:06:14;;;;;;;109.60;42.88;;;;;;;10.21;100.00;101941.75;4978774;28;20536;-84
2023/01/04 00:08:40;;;;;;;110.90;42.72;;;;;;;10.23;100.00;101935.38;4979369;28;20389;-84
2023/01/04 00:11:14;;;;;;;109.72;42.03;;;;;;;10.35;100.00;101942.31;4978660;28;20102;-84
2023/01/04 00:13:40;;;;;;;111.80;42.80;;;;;;;10.29;100.00;101939.34;4978458;28;20410;-84
2023/01/04 00:16:09;;;;;;;102.13;41.55;;;;;;;10.34;100.00;101937.16;4979523;28;20073;-85
2023/01/04 00:18:35;;;;;;;102.05;40.78;;;;;;;10.31;100.00;101940.03;4977615;28;20509;-84
2023/01/04 00:21:17;;;;;;;108.15;41.35;;;;;;;10.24;100.00;101937.06;4979032;28;20038;-84
2023/01/04 00:23:46;;;;;;;96.05;40.10;;;;;;;10.31;100.00;101934.75;4986317;28;20243;-82
2023/01/04 00:26:20;;;;;;;105.72;40.63;;;;;;;10.22;100.00;101938.16;4989437;28;20055;-83
2023/01/04 00:28:46;;;;;;;98.25;39.28;;;;;;;10.28;100.00;101945.59;4988294;28;20087;-83
2023/01/04 00:31:13;;;;;;;101.15;40.67;;;;;;;10.19;100.00;101941.06;4988488;28;20466;-84
2023/01/04 00:33:39;;;;;;;103.82;40.35;;;;;;;10.16;100.00;101936.00;4989599;28;20041;-84
2023/01/04 00:36:12;;;;;;;102.47;41.03;;;;;;;10.04;100.00;101939.63;4981114;28;20592;-84
2023/01/04 00:38:38;;;;;;;101.65;40.13;;;;;;;9.96;100.00;101940.25;4979613;28;20058;-85
2023/01/04 00:41:05;;;;;;;102.78;40.80;;;;;;;10.02;100.00;101934.44;4978564;28;20047;-86
2023/01/04 00:43:32;;;;;;;105.45;41.17;;;;;;;9.94;100.00;101943.97;4978860;28;20081;-85
2023/01/04 00:45:57;;;;;;;106.15;41.85;;;;;;;9.91;100.00;101939.75;4977644;28;20030;-86
2023/01/04 00:48:23;;;;;;;103.90;40.25;;;;;;;10.00;100.00;101938.19;4978088;28;20031;-84
2023/01/04 00:50:49;;;;;;;100.07;38.50;;;;;;;10.10;100.00;101939.13;4978309;28;20041;-86
2023/01/04 00:53:16;;;;;;;96.50;37.38;;;;;;;10.22;100.00;101938.16;4978869;28;20193;-86
2023/01/04 00:55:43;;;;;;;99.60;38.65;;;;;;;10.24;100.00;101931.75;4959668;28;20686;-84
2023/01/04 00:58:08;;;;;;;92.15;37.38;;;;;;;10.18;100.00;101926.13;4979084;28;20050;-85
2023/01/04 01:00:35;;;;;;;86.95;35.45;;;;;;;10.26;100.00;101923.69;4978372;28;20042;-83
2023/01/04 01:03:01;;;;;;;89.63;36.92;;;;;;;10.34;100.00;101923.91;4978309;28;20062;-81
2023/01/04 01:05:27;;;;;;;93.20;35.47;;;;;;;10.25;100.00;101927.31;4978680;28;20461;-84
2023/01/04 01:07:52;;;;;;;92.38;36.30;;;;;;;10.14;100.00;101927.34;4978889;28;20145;-82
2023/01/04 01:10:18;;;;;;;92.97;37.72;;;;;;;10.15;100.00;101924.56;4978639;28;20027;-81
2023/01/04 01:12:43;;;;;;;80.47;34.25;;;;;;;10.23;100.00;101926.59;4977138;28;20089;-82
2023/01/04 01:15:10;;;;;;;84.20;34.95;;;;;;;10.37;100.00;101926.31;4976768;28;20114;-83
2023/01/04 01:17:37;;;;;;;86.22;35.65;;;;;;;10.32;100.00;101923.19;4977865;28;20110;-82
2023/01/04 01:20:04;;;;;;;82.43;34.08;;;;;;;10.36;100.00;101924.63;4960272;28;20039;-86
2023/01/04 01:22:30;;;;;;;85.05;34.85;;;;;;;10.22;100.00;101924.91;4977102;28;20367;-84
2023/01/04 01:24:57;;;;;;;85.85;34.72;;;;;;;10.19;100.00;101933.94;4976476;28;20456;-80
2023/01/04 01:27:22;;;;;;;90.85;33.70;;;;;;;10.16;100.00;101922.75;4976596;28;20062;-83
2023/01/04 01:29:48;;;;;;;79.60;33.88;;;;;;;10.08;100.00;101925.16;4977009;28;20058;-82
2023/01/04 01:32:14;;;;;;;87.55;34.75;;;;;;;10.09;100.00;101926.84;4976071;28;20062;-81
2023/01/04 01:34:39;;;;;;;78.97;32.50;;;;;;;10.11;100.00;101924.94;4976498;28;20062;-84
2023/01/04 01:37:05;;;;;;;83.32;34.03;;;;;;;10.07;100.00;101928.78;4959056;28;20026;-81
2023/01/04 01:39:30;;;;;;;81.38;32.25;;;;;;;10.30;100.00;101927.78;4978000;28;20046;-87
2023/01/04 01:41:56;;;;;;;75.45;32.15;;;;;;;10.37;100.00;101932.44;4977081;28;20131;-83
2023/01/04 01:44:40;;;;;;;78.85;32.63;;;;;;;10.24;100.00;101941.53;4976613;28;20042;-83
2023/01/04 01:47:14;;;;;;;82.53;32.60;;;;;;;10.19;100.00;101939.25;4976923;28;20417;-84
2023/01/04 01:49:41;;;;;;;85.22;32.65;;;;;;;10.23;100.00;101939.84;4976704;28;20050;-81
2023/01/04 01:52:15;;;;;;;77.00;31.25;;;;;;;10.21;100.00;101939.09;4978220;28;20046;-81
2023/01/04 01:54:46;;;;;;;80.32;31.98;;;;;;;10.19;100.00;101933.09;4976467;28;20039;-81
2023/01/04 01:57:23;;;;;;;74.20;30.85;;;;;;;10.19;100.00;101939.25;4958824;28;20046;-84
2023/01/04 01:59:53;;;;;;;80.13;32.15;;;;;;;10.16;100.00;101933.34;4977044;28;20129;-81
2023/01/04 02:02:18;;;;;;;81.20;31.75;;;;;;;10.11;100.00;101936.34;4976860;28;20038;-83
2023/01/04 02:04:47;;;;;;;81.53;32.42;;;;;;;10.09;100.00;101942.72;4976771;28;20037;-86
2023/01/04 02:07:16;;;;;;;87.50;33.45;;;;;;;10.10;100.00;101939.13;4976326;28;20038;-85
2023/01/04 02:09:43;;;;;;;87.97;32.83;;;;;;;10.12;100.00;101937.19;4976733;28;20043;-84
2023/01/04 02:12:13;;;;;;;90.38;32.50;;;;;;;10.06;100.00;101940.34;4976780;28;20102;-85
2023/01/04 02:14:41;;;;;;;92.97;34.10;;;;;;;10.19;100.00;101935.75;4975832;28;20482;-86
2023/01/04 02:17:24;;;;;;;95.72;34.42;;;;;;;10.27;100.00;101938.63;4976479;28;20039;-80
2023/01/04 02:19:56;;;;;;;99.57;33.25;;;;;;;10.16;100.00;101928.06;4975639;28;20459;-82
2023/01/04 02:22:24;;;;;;;107.87;35.60;;;;;;;10.17;100.00;101932.41;4975929;28;20038;-82
2023/01/04 02:24:59;;;;;;;105.80;37.78;;;;;;;10.11;100.00;101927.56;4975913;28;20537;-83
2023/01/04 02:27:28;;;;;;;106.05;35.58;;;;;;;10.13;100.00;101934.44;4975999;28;20065;-84
2023/01/04 02:30:14;;;;;;;108.97;36.85;;;;;;;10.10;100.00;101923.22;4977668;28;20050;-84
2023/01/04 02:33:15;;;;;;;115.40;36.90;;;;;;;10.10;100.00;101929.38;4978514;28;20046;-85
2023/01/04 02:36:13;;;;;;;106.22;35.80;;;;;;;10.22;100.00;101927.56;4899683;29;20084;-82
2023/01/04 02:38:52;;;;;;;107.93;36.63;;;;;;;10.14;100.00;101922.06;4909920;28;20096;-83
2023/01/04 02:41:29;;;;;;;103.50;36.03;;;;;;;10.18;100.00;101920.81;4977670;28;20035;-79
2023/01/04 02:47:04;;;;;;;101.40;35.45;;;;;;;10.36;100.00;101919.31;4978930;28;20039;-79
2023/01/04 02:52:14;;;;;;;94.95;34.83;;;;;;;10.40;100.00;101904.00;4984591;28;20433;-79
2023/01/04 02:54:43;;;;;;;102.72;33.78;;;;;;;10.53;100.00;101908.16;4984569;28;20412;-79
2023/01/04 02:57:14;;;;;;;107.47;34.45;;;;;;;10.38;100.00;101912.06;4980748;28;20051;-84
2023/01/04 03:00:05;;;;;;;105.65;35.45;;;;;;;10.48;100.00;101907.69;4978025;28;20493;-82
2023/01/04 03:08:39;;;;;;;;;;;;;;;10.37;100.00;101928.97;4961542;28;20039;-86
2023/01/04 03:14:02;;;;;;;113.35;36.22;;;;;;;10.35;100.00;101921.13;4950055;28;20085;-83
2023/01/04 03:16:30;;;;;;;109.28;35.85;;;;;;;10.43;100.00;101920.50;4976064;28;20126;-86
2023/01/04 03:19:03;;;;;;;100.97;33.35;;;;;;;10.51;100.00;101918.03;4976338;28;20034;-89
2023/01/04 03:21:29;;;;;;;;;;;;;;;10.71;100.00;101914.56;4981600;28;20098;-88
2023/01/04 03:35:39;;;;;;;92.10;32.30;;;;;;;10.50;100.00;101916.38;4979507;28;20403;-86
2023/01/04 03:50:15;;;;;;;92.78;33.47;;;;;;;10.34;100.00;101923.91;4978042;28;20119;-85
2023/01/04 03:52:45;;;;;;;91.20;32.65;;;;;;;10.32;100.00;101928.47;4960927;28;20441;-85
2023/01/04 03:55:12;;;;;;;93.20;31.13;;;;;;;10.34;100.00;101922.09;4978261;28;20532;-88
2023/01/04 03:57:39;;;;;;;81.80;30.35;;;;;;;10.50;100.00;101921.69;4961821;28;20038;-84
2023/01/04 04:00:09;;;;;;;80.93;31.40;;;;;;;10.58;100.00;101913.91;4986143;28;20035;-85
2023/01/04 04:02:36;;;;;;;81.30;30.63;;;;;;;10.52;100.00;101917.06;4993595;28;20041;-85
2023/01/04 04:10:33;;;;;;;79.28;30.25;;;;;;;10.50;100.00;101900.47;4985615;28;20062;-89
2023/01/04 04:12:59;;;;;;;82.40;31.92;;;;;;;10.63;100.00;101900.28;4981169;28;20046;-90
2023/01/04 04:15:24;;;;;;;80.93;29.98;;;;;;;10.57;100.00;101896.31;4979556;28;20039;-89
2023/01/04 04:17:50;;;;;;;73.60;30.73;;;;;;;10.44;100.00;101900.97;4980581;28;20037;-88
2023/01/04 04:20:15;;;;;;;72.25;29.17;;;;;;;10.59;100.00;101899.69;4980183;28;20038;-88
2023/01/04 04:22:41;;;;;;;76.72;30.15;;;;;;;10.56;100.00;101899.97;4979447;28;20048;-88
2023/01/04 04:25:07;;;;;;;72.68;28.90;;;;;;;10.72;100.00;101904.81;4978356;28;20035;-86
2023/01/04 04:27:32;;;;;;;68.10;27.05;;;;;;;10.70;100.00;101902.28;4978625;28;20475;-88
2023/01/04 04:29:58;;;;;;;71.63;27.33;;;;;;;10.73;100.00;101902.03;4977675;28;20539;-89
2023/01/04 04:32:23;;;;;;;59.50;25.65;;;;;;;10.88;100.00;101905.19;4977664;28;20045;-83
2023/01/04 04:34:49;;;;;;;71.43;27.85;;;;;;;10.89;100.00;101894.47;4977435;28;20091;-83
2023/01/04 04:37:15;;;;;;;70.97;27.92;;;;;;;10.87;100.00;101893.72;4977258;28;20035;-84
2023/01/04 04:39:40;;;;;;;64.68;25.98;;;;;;;10.83;100.00;101902.09;4977729;28;20131;-89
2023/01/04 04:42:05;;;;;;;64.47;27.63;;;;;;;10.98;100.00;101899.94;4960134;28;20035;-82
2023/01/04 04:44:33;;;;;;;61.17;26.27;;;;;;;10.98;100.00;101898.13;4977559;28;20039;-86
2023/01/04 04:46:59;;;;;;;59.10;25.10;;;;;;;10.81;100.00;101904.03;4976984;28;20035;-89
2023/01/04 04:49:24;;;;;;;59.38;24.95;;;;;;;10.73;100.00;101899.38;4977707;28;20047;-84
2023/01/04 04:51:50;;;;;;;60.40;26.38;;;;;;;10.56;100.00;101899.09;4977166;28;20039;-88
2023/01/04 04:54:19;;;;;;;65.25;25.95;;;;;;;10.29;100.00;101902.25;4960520;28;20073;-88
2023/01/04 04:56:45;;;;;;;63.22;26.65;;;;;;;10.18;100.00;101900.47;4977958;28;20486;-87
2023/01/04 04:59:10;;;;;;;62.03;26.55;;;;;;;10.20;100.00;101903.00;4977562;28;20035;-86
2023/01/04 05:01:36;;;;;;;56.25;25.35;;;;;;;10.34;100.00;101894.78;4960279;28;20050;-88
2023/01/04 05:04:01;;;;;;;54.72;24.30;;;;;;;10.17;100.00;101903.25;4977621;28;20046;-84
2023/01/04 05:06:27;;;;;;;57.55;25.80;;;;;;;10.03;100.00;101892.91;4977009;28;20087;-88
2023/01/04 05:08:52;;;;;;;56.05;25.35;;;;;;;9.98;100.00;101892.44;4977432;28;20370;-88
2023/01/04 05:12:58;;;;;;;58.95;25.90;;;;;;;9.92;100.00;101892.94;4977841;28;20405;-85
2023/01/04 05:14:03;;;;;;;59.47;26.70;;;;;;;9.86;100.00;101900.41;4977890;28;20042;-85
2023/01/04 05:16:29;;;;;;;56.97;26.90;;;;;;;9.86;100.00;101894.28;4978077;28;20038;-87
2023/01/04 05:18:55;;;;;;;59.65;27.15;;;;;;;9.88;100.00;101894.16;4978204;28;20050;-87
2023/01/04 05:21:20;;;;;;;56.88;25.25;;;;;;;10.01;100.00;101897.50;4978996;28;20035;-84
2023/01/04 05:23:49;;;;;;;54.45;23.95;;;;;;;10.14;100.00;101898.22;4989382;28;20082;-85
2023/01/04 05:26:14;;;;;;;52.20;24.10;;;;;;;10.26;100.00;101897.19;4992457;28;20045;-88
2023/01/04 05:28:43;;;;;;;51.17;23.58;;;;;;;10.35;100.00;101896.44;4990625;28;20081;-86
2023/01/04 05:31:08;;;;;;;48.85;23.13;;;;;;;10.31;100.00;101900.28;4990566;28;20027;-84
2023/01/04 05:33:34;;;;;;;49.85;24.05;;;;;;;10.36;100.00;101898.97;4990328;28;20077;-88
2023/01/04 05:36:02;;;;;;;44.00;21.80;;;;;;;10.56;100.00;101899.97;4981440;28;20063;-85
2023/01/04 05:38:28;;;;;;;42.15;21.58;;;;;;;10.60;100.00;101912.00;4961337;28;20109;-88
2023/01/04 05:40:54;;;;;;;47.00;20.90;;;;;;;10.55;100.00;101908.03;4960502;28;20042;-86
2023/01/04 05:43:21;;;;;;;44.38;21.83;;;;;;;10.53;100.00;101910.81;4978652;28;20137;-90
2023/01/04 05:45:49;;;;;;;42.63;21.83;;;;;;;10.62;100.00;101904.75;4979103;28;20374;-88
2023/01/04 05:48:16;;;;;;;42.38;21.90;;;;;;;10.63;100.00;101905.59;4977426;28;20034;-86
2023/01/04 05:50:42;;;;;;;44.63;20.80;;;;;;;10.66;100.00;101919.44;4977310;28;20097;-86
2023/01/04 05:53:09;;;;;;;37.60;19.90;;;;;;;10.84;100.00;101924.97;4976207;28;20457;-88
2023/01/04 05:55:34;;;;;;;37.08;19.90;;;;;;;10.95;100.00;101916.97;4976238;28;20089;-86
2023/01/04 05:58:00;;;;;;;41.53;21.30;;;;;;;10.86;100.00;101921.25;4976896;28;20037;-86
2023/01/04 06:00:26;;;;;;;39.47;20.42;;;;;;;10.72;100.00;101921.56;4959532;28;20511;-88
2023/01/04 06:02:51;;;;;;;43.22;20.75;;;;;;;10.55;100.00;101930.06;4958958;28;20410;-86
2023/01/04 06:05:18;;;;;;;43.38;20.98;;;;;;;10.81;100.00;101920.78;4977365;28;20122;-89
2023/01/04 06:07:44;;;;;;;40.95;21.33;;;;;;;10.97;100.00;101925.63;4976674;28;20401;-87
2023/01/04 06:10:12;;;;;;;39.38;20.35;;;;;;;10.99;100.00;101922.84;4975780;28;20038;-87
2023/01/04 06:12:38;;;;;;;38.55;20.65;;;;;;;11.06;100.00;101924.00;4976989;28;20556;-88
2023/01/04 06:15:05;;;;;;;39.90;20.67;;;;;;;10.87;100.00;101930.03;4958507;28;20027;-87
2023/01/04 06:17:34;;;;;;;40.55;20.75;;;;;;;11.01;100.00;101934.16;4975736;28;20031;-88
2023/01/04 06:19:59;;;;;;;40.70;20.48;;;;;;;10.73;100.00;101928.56;4976502;28;20042;-86
2023/01/04 06:22:27;;;;;;;35.67;18.45;;;;;;;10.89;100.00;101933.41;4976226;28;20324;-86
2023/01/04 06:24:53;;;;;;;32.90;18.08;;;;;;;10.96;100.00;101931.06;4975639;28;20134;-84
2023/01/04 06:27:18;;;;;;;35.42;19.73;;;;;;;10.90;100.00;101933.25;4976247;28;20109;-87
2023/01/04 06:29:44;;;;;;;34.30;18.90;;;;;;;11.03;100.00;101935.72;4975932;28;20359;-86
2023/01/04 06:32:10;;;;;;;34.88;19.58;;;;;;;11.07;100.00;101938.97;4976203;28;20038;-86
2023/01/04 06:34:35;;;;;;;34.47;18.08;;;;;;;10.89;100.00;101936.91;4976382;28;20454;-87
2023/01/04 06:37:02;;;;;;;40.88;20.23;;;;;;;10.89;100.00;101938.69;4975999;28;20046;-86
2023/01/04 06:39:27;;;;;;;42.22;20.63;;;;;;;10.90;100.00;101935.09;4958616;28;20472;-88
2023/01/04 06:41:53;;;;;;;41.92;20.88;;;;;;;10.95;100.00;101937.34;4976133;28;20381;-88
2023/01/04 06:44:19;;;;;;;31.77;17.85;;;;;;;10.89;100.00;101936.91;4975620;28;20039;-85
2023/01/04 06:46:45;;;;;;;39.63;19.83;;;;;;;10.72;100.00;101937.47;4975645;28;20034;-87
2023/01/04 06:49:10;;;;;;;37.28;19.73;;;;;;;10.70;100.00;101931.47;4959153;28;20027;-87
2023/01/04 06:51:36;;;;;;;41.78;20.15;;;;;;;10.94;100.00;101931.19;4977286;28;20049;-90
2023/01/04 06:54:02;;;;;;;35.13;18.42;;;;;;;11.06;100.00;101942.59;4979783;28;20065;-88
2023/01/04 06:56:27;;;;;;;36.75;19.50;;;;;;;10.86;100.00;101945.13;4982447;28;20066;-88
2023/01/04 06:58:53;;;;;;;39.40;20.55;;;;;;;10.78;100.00;101950.22;4981721;28;20043;-85
2023/01/04 07:01:18;;;;;;;37.90;19.98;;;;;;;10.81;100.00;101954.41;4964154;28;20038;-87
2023/01/04 07:03:44;;;;;;;39.65;21.30;;;;;;;10.80;100.00;101953.56;4964827;28;20045;-87
2023/01/04 07:06:10;;;;;;;36.33;20.27;;;;;;;10.83;100.00;101952.47;4980222;28;20085;-88
2023/01/04 07:08:35;;;;;;;39.03;19.90;;;;;;;10.73;100.00;101955.06;4978631;28;20039;-82
2023/01/04 07:11:01;;;;;;;35.15;19.30;;;;;;;10.82;100.00;101951.63;4961113;28;20047;-88
2023/01/04 07:13:26;;;;;;;39.55;20.67;;;;;;;10.73;100.00;101957.72;4978844;28;20035;-85
2023/01/04 07:15:52;;;;;;;31.83;18.27;;;;;;;10.76;100.00;101949.50;4979213;28;20080;-85
2023/01/04 07:18:17;;;;;;;33.75;18.88;;;;;;;10.80;100.00;101966.00;4979338;28;20526;-84
2023/01/04 07:20:43;;;;;;;37.53;20.88;;;;;;;10.70;100.00;101965.94;4978386;28;20045;-86
2023/01/04 07:23:09;;;;;;;40.00;20.55;;;;;;;10.83;100.00;101968.41;4978040;28;20122;-84
2023/01/04 07:25:35;;;;;;;35.10;19.15;;;;;;;10.78;100.00;101968.78;4978415;28;20027;-86
2023/01/04 07:28:04;;;;;;;33.78;18.48;;;;;;;10.75;100.00;101965.53;4978494;28;20039;-84
2023/01/04 07:30:29;;;;;;;38.30;20.42;;;;;;;10.77;100.00;101969.72;4982988;28;20066;-84
2023/01/04 07:32:55;;;;;;;36.40;20.45;;;;;;;10.84;100.00;101962.94;4978063;28;20046;-83
2023/01/04 07:35:22;;;;;;;36.50;19.45;;;;;;;10.78;100.00;101974.06;4961512;28;20038;-83
2023/01/04 07:37:48;;;;;;;38.13;19.92;;;;;;;10.98;100.00;101968.91;4978670;28;20037;-86
2023/01/04 07:40:14;;;;;;;38.75;19.77;;;;;;;10.83;100.00;101982.50;4975599;28;20125;-86
2023/01/04 07:42:39;;;;;;;40.63;20.33;;;;;;;10.65;100.00;101968.13;4956911;28;20401;-88
2023/01/04 07:45:06;;;;;;;37.95;19.48;;;;;;;10.85;100.00;101977.06;4970426;28;20038;-87
2023/01/04 07:47:32;;;;;;;37.10;19.45;;;;;;;10.99;100.00;101971.44;4958154;28;20077;-84
2023/01/04 07:49:58;;;;;;;46.47;21.17;;;;;;;11.02;100.00;101975.63;4977003;28;20109;-86
2023/01/04 07:52:25;;;;;;;44.88;19.85;;;;;;;11.20;100.00;101968.78;4977224;28;20031;-83
2023/01/04 07:54:50;;;;;;;36.50;20.23;;;;;;;11.33;100.00;101980.03;4977573;28;20091;-83
2023/01/04 07:57:16;;;;;;;40.65;19.73;;;;;;;11.15;100.00;101979.78;4977590;28;20117;-84
2023/01/04 07:59:41;;;;;;;42.13;21.08;;;;;;;10.86;100.00;101984.91;4977655;28;20035;-86
2023/01/04 08:02:10;;;;;;;38.15;20.45;;;;;;;11.01;100.00;101984.56;4960412;28;20134;-86
2023/01/04 08:04:35;;;;;;;40.63;21.00;;;;;;;10.90;100.00;101985.50;4976858;28;20041;-86
2023/01/04 08:07:01;;;;;;;42.60;21.08;;;;;;;10.79;100.00;101991.69;4968634;28;20403;-84
2023/01/04 08:09:27;;;;;;;40.13;19.88;;;;;;;10.95;100.00;101990.38;4973378;28;20043;-84
2023/01/04 08:11:52;;;;;;;41.70;20.95;;;;;;;10.83;100.00;101998.41;4973504;28;20042;-85
2023/01/04 08:14:18;;;;;;;39.72;20.95;;;;;;;10.88;100.00;101998.00;4994869;28;20046;-86
2023/01/04 08:16:44;;;;;;;36.35;20.20;;;;;;;10.70;100.00;101997.75;4996243;28;20030;-82
2023/01/04 08:19:14;;;;;;;37.50;20.77;;;;;;;10.75;100.00;101994.69;4989618;28;20150;-85
2023/01/04 08:21:40;;;;;;;37.75;20.10;;;;;;;10.77;100.00;101998.09;4987886;28;20051;-84
2023/01/04 08:24:06;;;;;;;35.08;19.33;;;;;;;10.84;100.00;101994.78;4987876;28;20043;-84
2023/01/04 08:26:32;;;;;;;41.38;21.15;;;;;;;10.78;100.00;102000.59;4962030;28;20039;-87
2023/01/04 08:28:58;;;;;;;38.58;20.27;;;;;;;10.67;100.00;101997.97;4957311;28;20409;-84
2023/01/04 08:31:27;;;;;;;39.20;20.33;;;;;;;10.69;100.00;102000.50;4973692;28;20038;-85
2023/01/04 08:33:54;;;;;;;37.70;21.58;;;;;;;10.71;100.00;102003.88;4973452;28;20034;-87
2023/01/04 08:36:24;;;;;;;38.53;20.13;;;;;;;10.75;100.00;102008.81;4955099;28;20039;-86
2023/01/04 08:38:56;;;;;;;46.45;23.30;;;;;;;10.82;100.00;102002.03;4970381;28;20485;-86
2023/01/04 08:41:21;;;;;;;43.38;22.40;;;;;;;10.87;100.00;102010.44;4972739;28;20500;-86
2023/01/04 08:43:47;;;;;;;44.92;23.02;;;;;;;10.99;100.00;102013.03;4976543;28;20027;-81
2023/01/04 08:46:14;;;;;;;46.53;22.98;;;;;;;11.13;100.00;102008.28;4978602;28;20035;-85
2023/01/04 08:48:40;;;;;;;49.13;22.85;;;;;;;10.93;100.00;102002.94;4964644;28;20077;-82
2023/01/04 08:51:10;;;;;;;53.28;24.85;;;;;;;10.96;100.00;102014.16;4984947;28;20043;-84
2023/01/04 08:53:35;;;;;;;51.05;23.83;;;;;;;11.08;100.00;102013.09;4982560;28;20062;-83
2023/01/04 08:56:01;;;;;;;56.65;25.02;;;;;;;10.94;100.00;102009.94;4980195;28;20043;-84
2023/01/04 08:58:29;;;;;;;57.13;25.10;;;;;;;10.75;100.00;102014.09;4974455;28;20078;-82
2023/01/04 09:01:02;;;;;;;60.80;26.60;;;;;;;10.64;100.00;102013.31;4971007;28;20042;-86
2023/01/04 09:03:29;;;;;;;63.33;26.40;;;;;;;10.63;100.00;102017.78;4972067;28;20046;-84
2023/01/04 09:06:05;;;;;;;70.43;27.20;;;;;;;10.58;100.00;102012.00;4970477;28;20066;-80
2023/01/04 09:08:32;;;;;;;63.65;26.90;;;;;;;10.69;100.00;102016.44;4969530;28;20037;-84
2023/01/04 09:11:02;;;;;;;64.68;27.55;;;;;;;10.74;100.00;102019.53;4967849;28;20054;-86
2023/01/04 09:13:27;;;;;;;61.78;27.45;;;;;;;10.78;100.00;102020.97;4953293;28;20046;-83
2023/01/04 09:15:53;;;;;;;63.80;27.80;;;;;;;10.89;100.00;102024.44;4970685;28;20068;-85
2023/01/04 09:18:18;;;;;;;64.70;28.02;;;;;;;10.93;100.00;102030.31;4970897;28;20035;-83
2023/01/04 09:20:44;;;;;;;63.03;26.77;;;;;;;10.84;100.00;102034.56;4952505;28;20055;-84
2023/01/04 09:23:09;;;;;;;77.43;31.65;;;;;;;10.88;100.00;102033.34;4953655;28;20137;-87
2023/01/04 09:25:38;;;;;;;66.75;28.35;;;;;;;10.96;100.00;102029.22;4959176;28;20058;-83
2023/01/04 09:28:04;;;;;;;67.20;29.05;;;;;;;11.16;100.00;102036.34;4966539;28;20194;-85
2023/01/04 09:30:30;;;;;;;69.70;28.88;;;;;;;11.15;100.00;102039.97;4975474;28;20027;-85
2023/01/04 09:32:56;;;;;;;65.82;28.38;;;;;;;11.25;100.00;102030.25;4975255;28;20021;-84
2023/01/04 09:35:21;;;;;;;63.47;27.40;;;;;;;11.32;100.00;102031.44;4962006;28;20460;-80
2023/01/04 09:37:47;;;;;;;57.80;26.08;;;;;;;11.28;100.00;102035.31;4971376;28;20042;-87
2023/01/04 09:40:21;;;;;;;58.72;26.33;;;;;;;11.50;100.00;102024.53;4964200;28;20034;-85
2023/01/04 09:42:48;;;;;;;62.92;28.25;;;;;;;11.34;100.00;102029.47;4970052;28;20654;-84
2023/01/04 09:45:23;;;;;;;67.53;27.38;;;;;;;11.31;100.00;102035.03;4952659;28;20039;-83
2023/01/04 09:48:10;;;;;;;60.60;28.15;;;;;;;11.19;100.00;102039.59;4969046;28;20047;-83
2023/01/04 09:54:01;;;;;;;56.23;27.17;;;;;;;11.19;100.00;102036.09;5327105;23;20066;-88
2023/01/04 09:56:35;;;;;;;66.28;27.83;;;;;;;11.04;100.00;102032.91;4967203;29;20023;-90
2023/01/04 09:59:08;;;;;;;61.50;28.55;;;;;;;11.08;100.00;102029.03;4967515;29;20039;-86
2023/01/04 10:01:52;;;;;;;;;;;;;;;10.95;100.00;102033.69;4939661;28;20062;-89
2023/01/04 10:04:23;;;;;;;62.60;28.98;;;;;;;10.94;100.00;102028.50;4973585;28;20030;-88
2023/01/04 10:06:49;;;;;;;67.03;29.77;;;;;;;10.92;100.00;102030.44;4951265;28;20046;-89
2023/01/04 10:09:15;;;;;;;63.63;28.27;;;;;;;11.05;100.00;102021.31;4964623;29;20533;-88
2023/01/04 10:11:51;;;;;;;60.10;28.00;;;;;;;11.21;100.00;102019.06;4921517;29;20044;-82
2023/01/04 10:14:33;;;;;;;60.08;28.17;;;;;;;11.15;100.00;102013.44;4945642;29;20066;-87
2023/01/04 10:17:11;;;;;;;58.85;27.30;;;;;;;11.14;100.00;102017.03;4935247;29;20067;-81
2023/01/04 10:19:52;;;;;;;59.00;26.75;;;;;;;11.21;100.00;102012.91;4943253;29;20063;-83
2023/01/04 10:22:35;;;;;;;57.97;26.70;;;;;;;11.41;100.00;102004.09;4958151;29;20051;-83
2023/01/04 10:25:06;;;;;;;52.38;25.52;;;;;;;11.48;100.00;102002.59;4958654;29;20104;-84
2023/01/04 10:28:22;;;;;;;53.92;25.55;;;;;;;11.65;100.00;102003.81;4964692;28;20441;-81
2023/01/04 10:31:18;;;;;;;54.13;26.33;;;;;;;11.69;100.00;101998.09;4876655;29;20064;-86
2023/01/04 10:34:27;;;;;;;47.88;24.58;;;;;;;11.53;100.00;101997.75;4989683;23;20051;-87
2023/01/04 10:36:59;;;;;;;50.70;25.90;;;;;;;11.35;100.00;101989.53;4870044;29;20037;-85
2023/01/04 10:39:32;;;;;;;60.80;26.85;;;;;;;11.41;100.00;101983.69;4933392;29;20111;-88
2023/01/04 10:42:23;;;;;;;58.22;27.45;;;;;;;11.30;100.00;101982.97;4966513;29;20106;-85
2023/01/04 10:45:12;;;;;;;71.60;29.67;;;;;;;11.22;100.00;101967.69;4966388;29;20043;-84
2023/01/04 10:47:48;;;;;;;65.40;29.90;;;;;;;11.21;100.00;101965.13;4937789;29;20067;-86
2023/01/04 10:50:56;;;;;;;77.13;33.50;;;;;;;11.29;100.00;101968.00;4949424;29;20430;-85
2023/01/04 10:53:44;;;;;;;79.03;34.22;;;;;;;11.33;100.00;101970.22;4949451;28;20058;-85
2023/01/04 10:56:44;;;;;;;84.47;35.08;;;;;;;11.35;100.00;101963.00;4954114;29;20082;-87
2023/01/04 10:59:17;;;;;;;92.03;35.38;;;;;;;11.30;100.00;101965.19;4953587;29;20541;-86
2023/01/04 11:01:51;;;;;;;97.85;37.83;;;;;;;11.26;100.00;101973.56;4935127;29;20046;-86
2023/01/04 11:04:36;;;;;;;102.30;39.45;;;;;;;11.30;100.00;101965.19;4951961;29;20043;-82
2023/01/04 11:07:09;;;;;;;93.30;37.45;;;;;;;11.33;100.00;101962.28;4952151;29;20080;-84
2023/01/04 11:09:40;;;;;;;102.60;39.97;;;;;;;11.38;100.00;101967.19;4934287;29;20135;-86
2023/01/04 11:12:10;;;;;;;108.82;40.15;;;;;;;11.39;100.00;101952.97;4934981;29;20035;-87
2023/01/04 11:14:36;;;;;;;106.22;39.80;;;;;;;11.33;100.00;101954.31;4938077;29;20047;-85
2023/01/04 11:17:04;;;;;;;108.43;41.65;;;;;;;11.37;100.00;101947.78;4938066;29;20477;-85
2023/01/04 11:19:33;;;;;;;104.40;40.50;;;;;;;11.30;100.00;101951.09;4939177;29;20117;-84
2023/01/04 11:22:16;;;;;;;107.63;42.35;;;;;;;11.28;100.00;101945.06;4923004;29;20040;-88
2023/01/04 11:24:48;;;;;;;109.18;39.92;;;;;;;11.24;100.00;101946.28;4951369;29;20058;-84
2023/01/04 11:27:20;;;;;;;95.65;38.28;;;;;;;11.34;100.00;101945.38;4952636;29;20042;-83
2023/01/04 11:30:02;;;;;;;100.70;38.25;;;;;;;11.29;100.00;101938.78;4950736;29;20055;-84
2023/01/04 11:33:02;;;;;;;100.63;38.80;;;;;;;11.25;100.00;101938.22;4962942;29;20036;-83
2023/01/04 11:35:49;;;;;;;92.30;36.80;;;;;;;11.25;100.00;101932.91;4946320;29;20036;-86
2023/01/04 11:38:34;;;;;;;92.45;36.95;;;;;;;11.30;100.00;101932.53;4944405;29;20729;-84
2023/01/04 11:41:18;;;;;;;105.82;41.45;;;;;;;11.35;100.00;101923.19;4969392;28;20082;-86
2023/01/04 11:44:26;;;;;;;92.72;38.17;;;;;;;11.42;100.00;101920.84;4949968;29;20039;-82
2023/01/04 11:47:30;;;;;;;93.28;39.50;;;;;;;11.42;100.00;101923.50;4968318;29;20123;-85
2023/01/04 11:49:56;;;;;;;87.40;37.35;;;;;;;11.34;100.00;101912.69;4858986;29;20049;-85
2023/01/04 11:52:38;;;;;;;97.80;39.90;;;;;;;11.29;100.00;101914.91;4882492;29;20045;-86
2023/01/04 11:55:23;;;;;;;93.63;38.97;;;;;;;11.32;100.00;101914.66;4860730;29;20061;-88
2023/01/04 11:58:06;;;;;;;92.45;37.72;;;;;;;11.33;100.00;101906.53;4880946;29;20132;-84
2023/01/04 12:00:34;;;;;;;88.82;36.42;;;;;;;11.42;100.00;101902.25;4893838;29;20184;-85
2023/01/04 12:03:39;;;;;;;84.72;34.13;;;;;;;11.37;100.00;101889.38;4951143;29;20065;-88